sensor_id;sensor_type;location;lat;lon;timestamp;temperature;humidity
19292;DHT22;9779;51.756;7.450;2022-11-03T00:01:48;10.80;99.90
19292;DHT22;9779;51.756;7.450;2022-11-03T00:04:17;10.80;99.90
19292;DHT22;9779;51.756;7.450;2022-11-03T00:06:44;10.80;99.90
19292;DHT22;9779;51.756;7.450;2022-11-03T00:09:12;10.70;99.90
19292;DHT22;9779;51.756;7.450;2022-11-03T00:11:40;10.70;99.90
19292;DHT22;9779;51.756;7.450;2022-11-03T00:14:06;10.70;99.90
19292;DHT22;9779;51.756;7.450;2022-11-03T00:16:33;10.70;99.90
19292;DHT22;9779;51.756;7.450;2022-11-03T00:18:59;10.70;99.90
19292;DHT22;9779;51.756;7.450;2022-11-03T00:21:25;10.60;99.90
19292;DHT22;9779;51.756;7.450;2022-11-03T00:23:50;10.60;99.90
19292;DHT22;9779;51.756;7.450;2022-11-03T00:26:27;10.70;99.90
19292;DHT22;9779;51.756;7.450;2022-11-03T00:28:55;10.60;99.90
19292;DHT22;9779;51.756;7.450;2022-11-03T00:31:32;10.60;99.90
19292;DHT22;9779;51.756;7.450;2022-11-03T00:33:58;10.60;99.90
19292;DHT22;9779;51.756;7.450;2022-11-03T00:36:29;10.60;99.90
19292;DHT22;9779;51.756;7.450;2022-11-03T00:38:55;10.50;99.90
19292;DHT22;9779;51.756;7.450;2022-11-03T00:41:22;10.50;99.90
19292;DHT22;9779;51.756;7.450;2022-11-03T00:43:49;10.50;99.90
19292;DHT22;9779;51.756;7.450;2022-11-03T00:46:15;10.50;99.90
19292;DHT22;9779;51.756;7.450;2022-11-03T00:48:41;10.50;99.90
19292;DHT22;9779;51.756;7.450;2022-11-03T00:51:17;10.50;99.90
19292;DHT22;9779;51.756;7.450;2022-11-03T00:53:49;10.40;99.90
19292;DHT22;9779;51.756;7.450;2022-11-03T00:56:19;10.40;99.90
19292;DHT22;9779;51.756;7.450;2022-11-03T00:58:47;10.40;99.90
19292;DHT22;9779;51.756;7.450;2022-11-03T01:01:15;10.40;99.90
19292;DHT22;9779;51.756;7.450;2022-11-03T01:03:43;10.40;99.90
19292;DHT22;9779;51.756;7.450;2022-11-03T01:06:27;10.40;99.90
19292;DHT22;9779;51.756;7.450;2022-11-03T01:09:12;10.30;99.90
19292;DHT22;9779;51.756;7.450;2022-11-03T01:11:37;10.40;99.90
19292;DHT22;9779;51.756;7.450;2022-11-03T01:14:11;10.30;99.90
19292;DHT22;9779;51.756;7.450;2022-11-03T01:16:37;10.40;99.90
19292;DHT22;9779;51.756;7.450;2022-11-03T01:19:02;10.30;99.90
19292;DHT22;9779;51.756;7.450;2022-11-03T01:21:28;10.30;99.90
19292;DHT22;9779;51.756;7.450;2022-11-03T01:23:53;10.30;99.90
19292;DHT22;9779;51.756;7.450;2022-11-03T01:29:50;10.30;99.90
19292;DHT22;9779;51.756;7.450;2022-11-03T01:32:16;10.30;99.90
19292;DHT22;9779;51.756;7.450;2022-11-03T01:34:41;10.40;99.90
19292;DHT22;9779;51.756;7.450;2022-11-03T01:37:07;10.40;99.90
19292;DHT22;9779;51.756;7.450;2022-11-03T01:39:33;10.40;99.90
19292;DHT22;9779;51.756;7.450;2022-11-03T01:41:58;10.40;99.90
19292;DHT22;9779;51.756;7.450;2022-11-03T01:44:35;10.40;99.90
19292;DHT22;9779;51.756;7.450;2022-11-03T01:47:08;10.40;99.90
19292;DHT22;9779;51.756;7.450;2022-11-03T01:49:59;10.50;99.90
19292;DHT22;9779;51.756;7.450;2022-11-03T01:52:36;10.50;99.90
19292;DHT22;9779;51.756;7.450;2022-11-03T01:55:07;10.50;99.90
19292;DHT22;9779;51.756;7.450;2022-11-03T01:57:42;10.50;99.90
19292;DHT22;9779;51.756;7.450;2022-11-03T02:00:10;10.50;99.90
19292;DHT22;9779;51.756;7.450;2022-11-03T02:02:36;10.50;99.90
19292;DHT22;9779;51.756;7.450;2022-11-03T02:05:04;10.50;99.90
19292;DHT22;9779;51.756;7.450;2022-11-03T02:07:37;10.50;99.90
19292;DHT22;9779;51.756;7.450;2022-11-03T02:10:05;10.50;99.90
19292;DHT22;9779;51.756;7.450;2022-11-03T02:12:31;10.50;99.90
19292;DHT22;9779;51.756;7.450;2022-11-03T02:15:07;10.60;99.90
19292;DHT22;9779;51.756;7.450;2022-11-03T02:17:35;10.60;99.90
19292;DHT22;9779;51.756;7.450;2022-11-03T02:20:05;10.50;99.90
19292;DHT22;9779;51.756;7.450;2022-11-03T02:22:54;10.50;99.90
19292;DHT22;9779;51.756;7.450;2022-11-03T02:25:54;10.50;99.90
19292;DHT22;9779;51.756;7.450;2022-11-03T02:28:24;10.50;99.90
19292;DHT22;9779;51.756;7.450;2022-11-03T02:38:33;10.50;99.90
19292;DHT22;9779;51.756;7.450;2022-11-03T02:41:04;10.50;99.90
19292;DHT22;9779;51.756;7.450;2022-11-03T02:43:31;10.50;99.90
19292;DHT22;9779;51.756;7.450;2022-11-03T02:45:57;10.50;99.90
19292;DHT22;9779;51.756;7.450;2022-11-03T02:48:22;10.50;99.90
19292;DHT22;9779;51.756;7.450;2022-11-03T02:50:48;10.50;99.90
19292;DHT22;9779;51.756;7.450;2022-11-03T02:53:14;10.50;99.90
19292;DHT22;9779;51.756;7.450;2022-11-03T02:56:02;10.50;99.90
19292;DHT22;9779;51.756;7.450;2022-11-03T02:58:51;10.50;99.90
19292;DHT22;9779;51.756;7.450;2022-11-03T03:01:31;10.50;99.90
19292;DHT22;9779;51.756;7.450;2022-11-03T03:04:02;10.50;99.90
19292;DHT22;9779;51.756;7.450;2022-11-03T03:06:34;10.50;99.90
19292;DHT22;9779;51.756;7.450;2022-11-03T03:09:06;10.50;99.90
19292;DHT22;9779;51.756;7.450;2022-11-03T03:11:33;10.50;99.90
19292;DHT22;9779;51.756;7.450;2022-11-03T03:14:15;10.50;99.90
19292;DHT22;9779;51.756;7.450;2022-11-03T03:17:04;10.50;99.90
19292;DHT22;9779;51.756;7.450;2022-11-03T03:19:53;10.50;99.90
19292;DHT22;9779;51.756;7.450;2022-11-03T03:22:43;10.50;99.90
19292;DHT22;9779;51.756;7.450;2022-11-03T03:25:21;10.50;99.90
19292;DHT22;9779;51.756;7.450;2022-11-03T03:27:53;10.50;99.90
19292;DHT22;9779;51.756;7.450;2022-11-03T03:30:19;10.50;99.90
19292;DHT22;9779;51.756;7.450;2022-11-03T03:32:47;10.50;99.90
19292;DHT22;9779;51.756;7.450;2022-11-03T03:35:18;10.50;99.90
19292;DHT22;9779;51.756;7.450;2022-11-03T03:37:47;10.60;99.90
19292;DHT22;9779;51.756;7.450;2022-11-03T03:40:30;10.60;99.90
19292;DHT22;9779;51.756;7.450;2022-11-03T03:42:56;10.60;99.90
19292;DHT22;9779;51.756;7.450;2022-11-03T03:45:23;10.50;99.90
19292;DHT22;9779;51.756;7.450;2022-11-03T03:47:50;10.50;99.90
19292;DHT22;9779;51.756;7.450;2022-11-03T03:50:16;10.50;99.90
19292;DHT22;9779;51.756;7.450;2022-11-03T03:52:41;10.50;99.90
19292;DHT22;9779;51.756;7.450;2022-11-03T03:55:16;10.50;99.90
19292;DHT22;9779;51.756;7.450;2022-11-03T03:57:42;10.50;99.90
19292;DHT22;9779;51.756;7.450;2022-11-03T04:00:11;10.50;99.90
19292;DHT22;9779;51.756;7.450;2022-11-03T04:02:37;10.50;99.90
19292;DHT22;9779;51.756;7.450;2022-11-03T04:05:03;10.50;99.90
19292;DHT22;9779;51.756;7.450;2022-11-03T04:07:29;10.50;99.90
19292;DHT22;9779;51.756;7.450;2022-11-03T04:10:17;10.50;99.90
19292;DHT22;9779;51.756;7.450;2022-11-03T04:12:43;10.50;99.90
19292;DHT22;9779;51.756;7.450;2022-11-03T04:15:28;10.50;99.90
19292;DHT22;9779;51.756;7.450;2022-11-03T04:18:26;10.50;99.90
19292;DHT22;9779;51.756;7.450;2022-11-03T04:21:12;10.50;99.90
19292;DHT22;9779;51.756;7.450;2022-11-03T04:23:57;10.50;99.90
19292;DHT22;9779;51.756;7.450;2022-11-03T04:26:26;10.60;99.90
19292;DHT22;9779;51.756;7.450;2022-11-03T04:28:52;10.50;99.90
19292;DHT22;9779;51.756;7.450;2022-11-03T04:31:18;10.50;99.90
19292;DHT22;9779;51.756;7.450;2022-11-03T04:33:45;10.50;99.90
19292;DHT22;9779;51.756;7.450;2022-11-03T04:38:45;10.60;99.90
19292;DHT22;9779;51.756;7.450;2022-11-03T04:41:17;10.60;99.90
19292;DHT22;9779;51.756;7.450;2022-11-03T04:43:44;10.60;99.90
19292;DHT22;9779;51.756;7.450;2022-11-03T04:46:12;10.60;99.90
19292;DHT22;9779;51.756;7.450;2022-11-03T04:48:39;10.60;99.90
19292;DHT22;9779;51.756;7.450;2022-11-03T04:51:16;10.60;99.90
19292;DHT22;9779;51.756;7.450;2022-11-03T04:53:59;10.60;99.90
19292;DHT22;9779;51.756;7.450;2022-11-03T04:56:26;10.60;99.90
19292;DHT22;9779;51.756;7.450;2022-11-03T04:58:52;10.60;99.90
19292;DHT22;9779;51.756;7.450;2022-11-03T05:01:20;10.60;99.90
19292;DHT22;9779;51.756;7.450;2022-11-03T05:03:48;10.60;99.90
19292;DHT22;9779;51.756;7.450;2022-11-03T05:06:23;10.60;99.90
19292;DHT22;9779;51.756;7.450;2022-11-03T05:08:54;10.50;99.90
19292;DHT22;9779;51.756;7.450;2022-11-03T05:11:30;10.50;99.90
19292;DHT22;9779;51.756;7.450;2022-11-03T05:14:03;10.50;99.90
19292;DHT22;9779;51.756;7.450;2022-11-03T05:16:31;10.50;99.90
19292;DHT22;9779;51.756;7.450;2022-11-03T05:18:57;10.50;99.90
19292;DHT22;9779;51.756;7.450;2022-11-03T05:21:24;10.50;99.90
19292;DHT22;9779;51.756;7.450;2022-11-03T05:24:08;10.50;99.90
19292;DHT22;9779;51.756;7.450;2022-11-03T05:26:35;10.50;99.90
19292;DHT22;9779;51.756;7.450;2022-11-03T05:29:03;10.40;99.90
19292;DHT22;9779;51.756;7.450;2022-11-03T05:31:34;10.40;99.90
19292;DHT22;9779;51.756;7.450;2022-11-03T05:34:05;10.40;99.90
19292;DHT22;9779;51.756;7.450;2022-11-03T05:36:37;10.40;99.90
19292;DHT22;9779;51.756;7.450;2022-11-03T05:39:30;10.50;99.90
19292;DHT22;9779;51.756;7.450;2022-11-03T05:41:58;10.40;99.90
19292;DHT22;9779;51.756;7.450;2022-11-03T05:44:27;10.40;99.90
19292;DHT22;9779;51.756;7.450;2022-11-03T05:46:54;10.40;99.90
19292;DHT22;9779;51.756;7.450;2022-11-03T05:49:20;10.40;99.90
19292;DHT22;9779;51.756;7.450;2022-11-03T05:51:46;10.40;99.90
19292;DHT22;9779;51.756;7.450;2022-11-03T05:54:22;10.40;99.90
19292;DHT22;9779;51.756;7.450;2022-11-03T05:56:49;10.50;99.90
19292;DHT22;9779;51.756;7.450;2022-11-03T05:59:22;10.50;99.90
19292;DHT22;9779;51.756;7.450;2022-11-03T06:01:50;10.50;99.90
19292;DHT22;9779;51.756;7.450;2022-11-03T06:04:28;10.50;99.90
19292;DHT22;9779;51.756;7.450;2022-11-03T06:07:02;10.40;99.90
19292;DHT22;9779;51.756;7.450;2022-11-03T06:09:28;10.50;99.90
19292;DHT22;9779;51.756;7.450;2022-11-03T06:11:58;10.50;99.90
19292;DHT22;9779;51.756;7.450;2022-11-03T06:14:26;10.50;99.90
19292;DHT22;9779;51.756;7.450;2022-11-03T06:17:02;10.50;99.90
19292;DHT22;9779;51.756;7.450;2022-11-03T06:19:38;10.50;99.90
19292;DHT22;9779;51.756;7.450;2022-11-03T06:22:17;10.50;99.90
19292;DHT22;9779;51.756;7.450;2022-11-03T06:24:43;10.50;99.90
19292;DHT22;9779;51.756;7.450;2022-11-03T06:27:15;10.50;99.90
19292;DHT22;9779;51.756;7.450;2022-11-03T06:29:52;10.50;99.90
19292;DHT22;9779;51.756;7.450;2022-11-03T06:32:20;10.50;99.90
19292;DHT22;9779;51.756;7.450;2022-11-03T06:34:48;10.50;99.90
19292;DHT22;9779;51.756;7.450;2022-11-03T06:37:21;10.50;99.90
19292;DHT22;9779;51.756;7.450;2022-11-03T06:39:48;10.50;99.90
19292;DHT22;9779;51.756;7.450;2022-11-03T06:42:14;10.50;99.90
19292;DHT22;9779;51.756;7.450;2022-11-03T06:44:43;10.60;99.90
19292;DHT22;9779;51.756;7.450;2022-11-03T06:47:21;10.60;99.90
19292;DHT22;9779;51.756;7.450;2022-11-03T06:49:55;10.60;99.90
19292;DHT22;9779;51.756;7.450;2022-11-03T06:52:25;10.60;99.90
19292;DHT22;9779;51.756;7.450;2022-11-03T06:54:58;10.60;99.90
19292;DHT22;9779;51.756;7.450;2022-11-03T06:57:25;10.60;99.90
19292;DHT22;9779;51.756;7.450;2022-11-03T06:59:52;10.60;99.90
19292;DHT22;9779;51.756;7.450;2022-11-03T07:02:49;10.60;99.90
19292;DHT22;9779;51.756;7.450;2022-11-03T07:05:21;10.60;99.90
19292;DHT22;9779;51.756;7.450;2022-11-03T07:07:47;10.60;99.90
19292;DHT22;9779;51.756;7.450;2022-11-03T07:10:13;10.60;99.90
19292;DHT22;9779;51.756;7.450;2022-11-03T07:12:40;10.70;99.90
19292;DHT22;9779;51.756;7.450;2022-11-03T07:15:22;10.70;99.90
19292;DHT22;9779;51.756;7.450;2022-11-03T07:17:48;10.90;99.90
19292;DHT22;9779;51.756;7.450;2022-11-03T07:20:17;11.40;99.90
19292;DHT22;9779;51.756;7.450;2022-11-03T07:22:43;11.30;99.90
19292;DHT22;9779;51.756;7.450;2022-11-03T07:25:18;11.10;99.90
19292;DHT22;9779;51.756;7.450;2022-11-03T07:27:49;11.10;99.90
19292;DHT22;9779;51.756;7.450;2022-11-03T07:30:28;11.00;99.90
19292;DHT22;9779;51.756;7.450;2022-11-03T07:32:59;11.00;99.90
19292;DHT22;9779;51.756;7.450;2022-11-03T07:35:29;11.00;99.90
19292;DHT22;9779;51.756;7.450;2022-11-03T07:38:00;11.00;99.90
19292;DHT22;9779;51.756;7.450;2022-11-03T07:40:27;11.00;99.90
19292;DHT22;9779;51.756;7.450;2022-11-03T07:42:58;11.10;99.90
19292;DHT22;9779;51.756;7.450;2022-11-03T07:45:40;11.20;99.90
19292;DHT22;9779;51.756;7.450;2022-11-03T07:53:46;11.40;99.90
19292;DHT22;9779;51.756;7.450;2022-11-03T07:56:18;11.40;99.90
19292;DHT22;9779;51.756;7.450;2022-11-03T07:58:44;11.40;99.90
19292;DHT22;9779;51.756;7.450;2022-11-03T08:01:30;11.40;99.90
19292;DHT22;9779;51.756;7.450;2022-11-03T08:04:03;11.40;99.90
19292;DHT22;9779;51.756;7.450;2022-11-03T08:06:30;11.40;99.90
19292;DHT22;9779;51.756;7.450;2022-11-03T08:08:56;11.40;99.90
19292;DHT22;9779;51.756;7.450;2022-11-03T08:11:21;11.40;99.90
19292;DHT22;9779;51.756;7.450;2022-11-03T08:13:49;11.50;99.90
19292;DHT22;9779;51.756;7.450;2022-11-03T08:16:15;11.50;99.90
19292;DHT22;9779;51.756;7.450;2022-11-03T08:18:40;11.50;99.90
19292;DHT22;9779;51.756;7.450;2022-11-03T08:21:06;11.60;99.90
19292;DHT22;9779;51.756;7.450;2022-11-03T08:23:31;11.60;99.90
19292;DHT22;9779;51.756;7.450;2022-11-03T08:25:57;11.70;99.90
19292;DHT22;9779;51.756;7.450;2022-11-03T08:28:22;11.70;99.90
19292;DHT22;9779;51.756;7.450;2022-11-03T08:30:48;11.70;99.90
19292;DHT22;9779;51.756;7.450;2022-11-03T08:33:13;11.80;99.90
19292;DHT22;9779;51.756;7.450;2022-11-03T08:35:39;11.80;99.90
19292;DHT22;9779;51.756;7.450;2022-11-03T08:38:05;11.80;99.90
19292;DHT22;9779;51.756;7.450;2022-11-03T08:40:31;11.80;99.90
19292;DHT22;9779;51.756;7.450;2022-11-03T08:42:56;11.90;99.90
19292;DHT22;9779;51.756;7.450;2022-11-03T08:45:22;11.90;99.90
19292;DHT22;9779;51.756;7.450;2022-11-03T08:47:48;12.00;99.90
19292;DHT22;9779;51.756;7.450;2022-11-03T08:50:14;12.00;99.90
19292;DHT22;9779;51.756;7.450;2022-11-03T08:52:39;12.00;99.90
19292;DHT22;9779;51.756;7.450;2022-11-03T08:55:05;12.10;99.90
19292;DHT22;9779;51.756;7.450;2022-11-03T08:57:31;12.10;99.90
19292;DHT22;9779;51.756;7.450;2022-11-03T08:59:56;12.20;99.90
19292;DHT22;9779;51.756;7.450;2022-11-03T09:02:22;12.20;99.90
19292;DHT22;9779;51.756;7.450;2022-11-03T09:04:47;12.20;99.90
19292;DHT22;9779;51.756;7.450;2022-11-03T09:07:13;12.20;99.90
19292;DHT22;9779;51.756;7.450;2022-11-03T09:09:38;12.30;99.90
19292;DHT22;9779;51.756;7.450;2022-11-03T09:12:04;12.30;99.90
19292;DHT22;9779;51.756;7.450;2022-11-03T09:14:30;12.40;99.90
19292;DHT22;9779;51.756;7.450;2022-11-03T09:16:55;12.40;99.90
19292;DHT22;9779;51.756;7.450;2022-11-03T09:19:21;12.50;99.90
19292;DHT22;9779;51.756;7.450;2022-11-03T09:21:47;12.50;99.90
19292;DHT22;9779;51.756;7.450;2022-11-03T09:24:12;12.50;99.90
19292;DHT22;9779;51.756;7.450;2022-11-03T09:26:38;12.60;99.90
19292;DHT22;9779;51.756;7.450;2022-11-03T09:29:03;12.60;99.90
19292;DHT22;9779;51.756;7.450;2022-11-03T09:31:29;12.60;99.90
19292;DHT22;9779;51.756;7.450;2022-11-03T09:33:55;12.70;99.90
19292;DHT22;9779;51.756;7.450;2022-11-03T09:36:20;12.70;99.90
19292;DHT22;9779;51.756;7.450;2022-11-03T09:38:46;12.70;99.90
19292;DHT22;9779;51.756;7.450;2022-11-03T09:41:12;12.80;99.90
19292;DHT22;9779;51.756;7.450;2022-11-03T09:43:43;12.80;99.90
19292;DHT22;9779;51.756;7.450;2022-11-03T09:46:09;12.90;99.90
19292;DHT22;9779;51.756;7.450;2022-11-03T09:48:35;12.90;99.90
19292;DHT22;9779;51.756;7.450;2022-11-03T09:51:00;12.90;99.90
19292;DHT22;9779;51.756;7.450;2022-11-03T09:53:26;13.10;99.90
19292;DHT22;9779;51.756;7.450;2022-11-03T09:55:51;13.10;99.90
19292;DHT22;9779;51.756;7.450;2022-11-03T09:58:17;13.20;99.90
19292;DHT22;9779;51.756;7.450;2022-11-03T10:00:43;13.20;99.90
19292;DHT22;9779;51.756;7.450;2022-11-03T10:03:10;13.20;99.90
19292;DHT22;9779;51.756;7.450;2022-11-03T10:05:38;13.30;99.90
19292;DHT22;9779;51.756;7.450;2022-11-03T10:08:15;13.40;99.90
19292;DHT22;9779;51.756;7.450;2022-11-03T10:10:43;13.40;99.90
19292;DHT22;9779;51.756;7.450;2022-11-03T10:13:10;13.50;99.90
19292;DHT22;9779;51.756;7.450;2022-11-03T10:15:41;13.50;99.90
19292;DHT22;9779;51.756;7.450;2022-11-03T10:18:08;13.60;99.90
19292;DHT22;9779;51.756;7.450;2022-11-03T10:20:34;13.60;99.90
19292;DHT22;9779;51.756;7.450;2022-11-03T10:22:59;13.70;99.90
19292;DHT22;9779;51.756;7.450;2022-11-03T10:25:27;13.70;99.90
19292;DHT22;9779;51.756;7.450;2022-11-03T10:28:21;13.80;99.90
19292;DHT22;9779;51.756;7.450;2022-11-03T10:30:57;13.80;99.90
19292;DHT22;9779;51.756;7.450;2022-11-03T10:33:37;13.90;99.90
19292;DHT22;9779;51.756;7.450;2022-11-03T10:36:25;14.00;99.90
19292;DHT22;9779;51.756;7.450;2022-11-03T10:38:50;14.00;99.90
19292;DHT22;9779;51.756;7.450;2022-11-03T10:41:19;14.00;99.90
19292;DHT22;9779;51.756;7.450;2022-11-03T10:46:29;14.10;99.90
19292;DHT22;9779;51.756;7.450;2022-11-03T10:49:02;14.10;99.90
19292;DHT22;9779;51.756;7.450;2022-11-03T10:51:29;14.10;99.90
19292;DHT22;9779;51.756;7.450;2022-11-03T10:53:55;14.10;99.90
19292;DHT22;9779;51.756;7.450;2022-11-03T10:56:21;14.10;99.90
19292;DHT22;9779;51.756;7.450;2022-11-03T10:58:47;14.10;99.90
19292;DHT22;9779;51.756;7.450;2022-11-03T11:01:12;14.10;99.90
19292;DHT22;9779;51.756;7.450;2022-11-03T11:03:42;14.10;99.90
19292;DHT22;9779;51.756;7.450;2022-11-03T11:06:21;14.10;99.90
19292;DHT22;9779;51.756;7.450;2022-11-03T11:08:49;14.10;99.90
19292;DHT22;9779;51.756;7.450;2022-11-03T11:11:18;14.10;99.90
19292;DHT22;9779;51.756;7.450;2022-11-03T11:13:52;14.10;99.90
19292;DHT22;9779;51.756;7.450;2022-11-03T11:16:54;14.10;99.90
19292;DHT22;9779;51.756;7.450;2022-11-03T11:19:22;14.20;99.90
19292;DHT22;9779;51.756;7.450;2022-11-03T11:21:55;14.20;99.90
19292;DHT22;9779;51.756;7.450;2022-11-03T11:41:05;14.30;99.90
19292;DHT22;9779;51.756;7.450;2022-11-03T11:43:31;14.30;99.90
19292;DHT22;9779;51.756;7.450;2022-11-03T11:51:33;14.30;99.90
19292;DHT22;9779;51.756;7.450;2022-11-03T11:53:59;14.30;99.90
19292;DHT22;9779;51.756;7.450;2022-11-03T11:56:25;14.40;99.90
19292;DHT22;9779;51.756;7.450;2022-11-03T11:58:52;14.50;99.90
19292;DHT22;9779;51.756;7.450;2022-11-03T12:01:30;14.70;99.90
19292;DHT22;9779;51.756;7.450;2022-11-03T12:04:05;14.90;99.90
19292;DHT22;9779;51.756;7.450;2022-11-03T12:06:32;15.00;99.90
19292;DHT22;9779;51.756;7.450;2022-11-03T12:09:19;15.10;99.90
19292;DHT22;9779;51.756;7.450;2022-11-03T12:11:47;15.30;99.90
19292;DHT22;9779;51.756;7.450;2022-11-03T12:16:48;15.60;99.90
19292;DHT22;9779;51.756;7.450;2022-11-03T12:19:33;15.80;99.90
19292;DHT22;9779;51.756;7.450;2022-11-03T12:21:59;15.90;99.90
19292;DHT22;9779;51.756;7.450;2022-11-03T12:26:57;16.30;99.90
19292;DHT22;9779;51.756;7.450;2022-11-03T12:29:23;16.50;99.90
19292;DHT22;9779;51.756;7.450;2022-11-03T12:31:49;16.50;99.90
19292;DHT22;9779;51.756;7.450;2022-11-03T12:34:15;16.40;99.90
19292;DHT22;9779;51.756;7.450;2022-11-03T12:36:44;16.40;99.90
19292;DHT22;9779;51.756;7.450;2022-11-03T12:39:10;16.40;99.90
19292;DHT22;9779;51.756;7.450;2022-11-03T12:41:36;16.50;99.90
19292;DHT22;9779;51.756;7.450;2022-11-03T12:44:01;16.60;99.90
19292;DHT22;9779;51.756;7.450;2022-11-03T12:46:27;16.60;99.90
19292;DHT22;9779;51.756;7.450;2022-11-03T12:48:53;16.50;99.90
19292;DHT22;9779;51.756;7.450;2022-11-03T12:51:23;16.50;99.90
19292;DHT22;9779;51.756;7.450;2022-11-03T12:53:49;16.50;99.90
19292;DHT22;9779;51.756;7.450;2022-11-03T12:56:16;16.50;99.90
19292;DHT22;9779;51.756;7.450;2022-11-03T12:58:42;16.50;99.90
19292;DHT22;9779;51.756;7.450;2022-11-03T13:01:08;16.50;99.90
19292;DHT22;9779;51.756;7.450;2022-11-03T13:03:35;16.40;99.90
19292;DHT22;9779;51.756;7.450;2022-11-03T13:06:02;16.30;99.90
19292;DHT22;9779;51.756;7.450;2022-11-03T13:08:29;16.30;99.90
19292;DHT22;9779;51.756;7.450;2022-11-03T13:10:55;16.20;99.90
19292;DHT22;9779;51.756;7.450;2022-11-03T13:13:21;16.20;99.90
19292;DHT22;9779;51.756;7.450;2022-11-03T13:15:47;16.20;99.90
19292;DHT22;9779;51.756;7.450;2022-11-03T13:18:12;16.40;99.90
19292;DHT22;9779;51.756;7.450;2022-11-03T13:20:38;16.40;99.90
19292;DHT22;9779;51.756;7.450;2022-11-03T13:23:04;16.40;99.90
19292;DHT22;9779;51.756;7.450;2022-11-03T13:25:30;16.40;99.90
19292;DHT22;9779;51.756;7.450;2022-11-03T13:27:56;16.40;99.90
19292;DHT22;9779;51.756;7.450;2022-11-03T13:30:23;16.40;99.90
19292;DHT22;9779;51.756;7.450;2022-11-03T13:32:49;16.40;99.90
19292;DHT22;9779;51.756;7.450;2022-11-03T13:35:15;16.40;99.90
19292;DHT22;9779;51.756;7.450;2022-11-03T13:37:41;16.40;99.90
19292;DHT22;9779;51.756;7.450;2022-11-03T13:40:09;16.30;99.90
19292;DHT22;9779;51.756;7.450;2022-11-03T13:42:35;16.30;99.90
19292;DHT22;9779;51.756;7.450;2022-11-03T13:45:00;16.20;99.90
19292;DHT22;9779;51.756;7.450;2022-11-03T13:47:26;16.20;99.90
19292;DHT22;9779;51.756;7.450;2022-11-03T13:49:51;16.10;99.90
19292;DHT22;9779;51.756;7.450;2022-11-03T13:52:20;16.10;99.90
19292;DHT22;9779;51.756;7.450;2022-11-03T13:54:46;16.10;99.90
19292;DHT22;9779;51.756;7.450;2022-11-03T13:57:12;16.10;99.90
19292;DHT22;9779;51.756;7.450;2022-11-03T13:59:38;16.00;99.90
19292;DHT22;9779;51.756;7.450;2022-11-03T14:02:04;16.00;99.90
19292;DHT22;9779;51.756;7.450;2022-11-03T14:04:30;15.90;99.90
19292;DHT22;9779;51.756;7.450;2022-11-03T14:06:56;15.90;99.90
19292;DHT22;9779;51.756;7.450;2022-11-03T14:09:22;15.90;99.90
19292;DHT22;9779;51.756;7.450;2022-11-03T14:11:48;15.90;99.90
19292;DHT22;9779;51.756;7.450;2022-11-03T14:14:32;15.80;99.90
19292;DHT22;9779;51.756;7.450;2022-11-03T14:16:58;15.80;99.90
19292;DHT22;9779;51.756;7.450;2022-11-03T14:19:23;15.80;99.90
19292;DHT22;9779;51.756;7.450;2022-11-03T14:21:49;15.80;99.90
19292;DHT22;9779;51.756;7.450;2022-11-03T14:24:15;15.80;99.90
19292;DHT22;9779;51.756;7.450;2022-11-03T14:26:41;15.70;99.90
19292;DHT22;9779;51.756;7.450;2022-11-03T14:29:06;15.70;99.90
19292;DHT22;9779;51.756;7.450;2022-11-03T14:31:32;15.60;99.90
19292;DHT22;9779;51.756;7.450;2022-11-03T14:33:58;15.50;99.90
19292;DHT22;9779;51.756;7.450;2022-11-03T14:36:23;15.60;99.90
19292;DHT22;9779;51.756;7.450;2022-11-03T14:38:49;15.60;99.90
19292;DHT22;9779;51.756;7.450;2022-11-03T14:41:15;15.60;99.90
19292;DHT22;9779;51.756;7.450;2022-11-03T14:43:59;15.50;99.90
19292;DHT22;9779;51.756;7.450;2022-11-03T14:46:26;15.50;99.90
19292;DHT22;9779;51.756;7.450;2022-11-03T14:48:52;15.40;99.90
19292;DHT22;9779;51.756;7.450;2022-11-03T14:51:18;15.40;99.90
19292;DHT22;9779;51.756;7.450;2022-11-03T14:53:44;15.40;99.90
19292;DHT22;9779;51.756;7.450;2022-11-03T14:56:10;15.40;99.90
19292;DHT22;9779;51.756;7.450;2022-11-03T14:58:36;15.30;99.90
19292;DHT22;9779;51.756;7.450;2022-11-03T15:01:02;15.30;99.90
19292;DHT22;9779;51.756;7.450;2022-11-03T15:03:27;15.30;99.90
19292;DHT22;9779;51.756;7.450;2022-11-03T15:05:53;15.30;99.90
19292;DHT22;9779;51.756;7.450;2022-11-03T15:08:20;15.20;99.90
19292;DHT22;9779;51.756;7.450;2022-11-03T15:10:47;15.20;99.90
19292;DHT22;9779;51.756;7.450;2022-11-03T15:13:12;15.20;99.90
19292;DHT22;9779;51.756;7.450;2022-11-03T15:15:38;15.20;99.90
19292;DHT22;9779;51.756;7.450;2022-11-03T15:18:06;15.10;99.90
19292;DHT22;9779;51.756;7.450;2022-11-03T15:20:31;15.10;99.90
19292;DHT22;9779;51.756;7.450;2022-11-03T15:23:00;15.10;99.90
19292;DHT22;9779;51.756;7.450;2022-11-03T15:25:27;15.10;99.90
19292;DHT22;9779;51.756;7.450;2022-11-03T15:27:52;15.10;99.90
19292;DHT22;9779;51.756;7.450;2022-11-03T15:30:18;15.00;99.90
19292;DHT22;9779;51.756;7.450;2022-11-03T15:32:43;15.00;99.90
19292;DHT22;9779;51.756;7.450;2022-11-03T15:35:09;15.00;99.90
19292;DHT22;9779;51.756;7.450;2022-11-03T15:37:35;14.90;99.90
19292;DHT22;9779;51.756;7.450;2022-11-03T15:40:00;14.90;99.90
19292;DHT22;9779;51.756;7.450;2022-11-03T15:42:26;14.90;99.90
19292;DHT22;9779;51.756;7.450;2022-11-03T15:44:52;14.80;99.90
19292;DHT22;9779;51.756;7.450;2022-11-03T15:47:17;14.80;99.90
19292;DHT22;9779;51.756;7.450;2022-11-03T15:49:43;14.70;99.90
19292;DHT22;9779;51.756;7.450;2022-11-03T15:52:08;14.70;99.90
19292;DHT22;9779;51.756;7.450;2022-11-03T15:54:34;14.70;99.90
19292;DHT22;9779;51.756;7.450;2022-11-03T15:57:00;14.70;99.90
19292;DHT22;9779;51.756;7.450;2022-11-03T15:59:25;14.60;99.90
19292;DHT22;9779;51.756;7.450;2022-11-03T16:01:51;14.60;99.90
19292;DHT22;9779;51.756;7.450;2022-11-03T16:04:17;14.50;99.90
19292;DHT22;9779;51.756;7.450;2022-11-03T16:06:42;14.50;99.90
19292;DHT22;9779;51.756;7.450;2022-11-03T16:09:08;14.40;99.90
19292;DHT22;9779;51.756;7.450;2022-11-03T16:11:34;14.40;99.90
19292;DHT22;9779;51.756;7.450;2022-11-03T16:13:59;14.40;99.90
19292;DHT22;9779;51.756;7.450;2022-11-03T16:16:25;14.30;99.90
19292;DHT22;9779;51.756;7.450;2022-11-03T16:18:51;14.30;99.90
19292;DHT22;9779;51.756;7.450;2022-11-03T16:21:16;14.20;99.90
19292;DHT22;9779;51.756;7.450;2022-11-03T16:23:42;14.20;99.90
19292;DHT22;9779;51.756;7.450;2022-11-03T16:26:07;14.20;99.90
19292;DHT22;9779;51.756;7.450;2022-11-03T16:28:34;14.10;99.90
19292;DHT22;9779;51.756;7.450;2022-11-03T16:30:59;14.10;99.90
19292;DHT22;9779;51.756;7.450;2022-11-03T16:33:25;14.00;99.90
19292;DHT22;9779;51.756;7.450;2022-11-03T16:35:51;14.00;99.90
19292;DHT22;9779;51.756;7.450;2022-11-03T16:38:17;14.00;99.90
19292;DHT22;9779;51.756;7.450;2022-11-03T16:40:43;13.90;99.90
19292;DHT22;9779;51.756;7.450;2022-11-03T16:43:09;13.90;99.90
19292;DHT22;9779;51.756;7.450;2022-11-03T16:45:35;13.90;99.90
19292;DHT22;9779;51.756;7.450;2022-11-03T16:48:00;13.80;99.90